Time;durP1;ratioP1;P1;durP2;ratioP2;P2;SDS_P1;SDS_P2;PMS_P1;PMS_P2;Temp;Humidity;BMP_temperature;BMP_pressure;BME280_temperature;BME280_humidity;BME280_pressure;Samples;Min_cycle;Max_cycle;Signal;HPM_P1;HPM_P2
2024/01/22 00:02:14;;;;;;;3.20;2.10;;;;;;;7.08;100.00;100884.28;5110634;28;20035;-38
2024/01/22 00:04:39;;;;;;;4.03;1.97;;;;;;;7.06;100.00;100859.47;5110294;28;20028;-38
2024/01/22 00:07:04;;;;;;;4.60;2.40;;;;;;;7.16;100.00;100867.94;5102128;28;20047;-39
2024/01/22 00:09:30;;;;;;;4.77;2.37;;;;;;;7.17;100.00;100848.91;5096252;28;20024;-39
2024/01/22 00:11:55;;;;;;;5.47;3.00;;;;;;;7.14;100.00;100861.94;5097175;28;20078;-39
2024/01/22 00:14:20;;;;;;;3.57;2.37;;;;;;;7.15;100.00;100850.16;5096725;28;20032;-38
2024/01/22 00:16:46;;;;;;;3.43;2.77;;;;;;;7.18;100.00;100838.97;5095920;28;20039;-38
2024/01/22 00:19:11;;;;;;;7.37;2.90;;;;;;;7.27;100.00;100851.19;5096208;28;20035;-38
2024/01/22 00:21:42;;;;;;;4.07;2.40;;;;;;;7.29;100.00;100881.38;5096890;28;20106;-38
2024/01/22 00:24:07;;;;;;;4.85;2.92;;;;;;;7.23;100.00;100858.00;5095685;28;20024;-38
2024/01/22 00:26:33;;;;;;;4.40;2.33;;;;;;;7.35;100.00;100861.69;5096575;28;20042;-38
2024/01/22 00:28:58;;;;;;;4.00;2.37;;;;;;;7.33;100.00;100836.88;5096172;28;20047;-39
2024/01/22 00:31:23;;;;;;;5.47;3.20;;;;;;;7.37;100.00;100819.28;5096296;28;20421;-39
2024/01/22 00:33:49;;;;;;;4.77;2.60;;;;;;;7.41;100.00;100820.50;5096061;28;20431;-39
2024/01/22 00:36:14;;;;;;;5.07;2.40;;;;;;;7.36;100.00;100798.78;5096123;28;20028;-39
2024/01/22 00:38:41;;;;;;;5.30;2.17;;;;;;;7.44;100.00;100792.38;5095745;28;20059;-39
2024/01/22 00:41:06;;;;;;;4.55;2.30;;;;;;;7.37;100.00;100778.94;5096012;28;20115;-39
2024/01/22 00:43:32;;;;;;;3.30;1.95;;;;;;;7.57;100.00;100767.28;5095669;28;20031;-39
2024/01/22 00:45:57;;;;;;;4.17;2.33;;;;;;;7.49;100.00;100782.63;5096508;28;20414;-39
2024/01/22 00:48:23;;;;;;;3.83;2.20;;;;;;;7.55;100.00;100783.63;5096122;28;20024;-39
2024/01/22 00:50:48;;;;;;;5.47;2.75;;;;;;;7.58;100.00;100779.69;5095311;28;20365;-39
2024/01/22 00:53:14;;;;;;;3.72;2.00;;;;;;;7.56;100.00;100768.31;5095794;28;20028;-39
2024/01/22 00:55:39;;;;;;;3.90;2.00;;;;;;;7.59;100.00;100759.81;5095671;28;20452;-39
2024/01/22 00:58:05;;;;;;;3.37;2.20;;;;;;;7.62;100.00;100759.41;5096259;28;20076;-39
2024/01/22 01:00:30;;;;;;;3.47;1.77;;;;;;;7.63;100.00;100751.09;5095366;28;20065;-39
2024/01/22 01:02:56;;;;;;;3.30;2.00;;;;;;;7.68;100.00;100759.34;5095632;28;20281;-39
2024/01/22 01:05:21;;;;;;;3.17;2.20;;;;;;;7.70;100.00;100762.66;5095288;28;20028;-39
2024/01/22 01:07:46;;;;;;;3.57;2.43;;;;;;;7.72;100.00;100752.50;5095800;28;20726;-39
2024/01/22 01:10:12;;;;;;;2.87;1.83;;;;;;;7.74;100.00;100768.44;5095168;28;20036;-39
2024/01/22 01:12:37;;;;;;;4.23;2.33;;;;;;;7.76;100.00;100750.22;5095187;28;20266;-39
2024/01/22 01:15:04;;;;;;;2.83;1.70;;;;;;;7.83;100.00;100734.03;5094954;28;20456;-39
2024/01/22 01:17:31;;;;;;;3.78;1.85;;;;;;;7.86;100.00;100747.91;5095346;28;20273;-39
2024/01/22 01:19:56;;;;;;;2.65;1.60;;;;;;;7.88;100.00;100758.44;5094018;28;20028;-39
2024/01/22 01:22:22;;;;;;;2.87;1.77;;;;;;;7.94;100.00;100753.00;5095236;28;20024;-39
2024/01/22 01:24:47;;;;;;;3.20;1.80;;;;;;;7.98;100.00;100770.38;5094907;28;20319;-39
2024/01/22 01:27:12;;;;;;;3.13;2.00;;;;;;;7.94;100.00;100741.41;5094876;28;20020;-39
2024/01/22 01:29:38;;;;;;;2.58;1.55;;;;;;;8.00;100.00;100762.94;5094770;28;20020;-39
2024/01/22 01:32:04;;;;;;;;;;;;;;;8.02;100.00;100749.25;5095474;28;20028;-39
2024/01/22 01:34:29;;;;;;;2.60;1.77;;;;;;;8.03;100.00;100732.03;5094594;28;19908;-39
2024/01/22 01:36:55;;;;;;;2.20;1.47;;;;;;;8.04;100.00;100736.38;5094730;28;20111;-39
2024/01/22 01:39:20;;;;;;;3.87;1.60;;;;;;;8.05;100.00;100729.94;5095105;28;20063;-39
2024/01/22 01:41:49;;;;;;;3.43;1.53;;;;;;;8.08;100.00;100732.22;5094838;28;20580;-39
2024/01/22 01:44:14;;;;;;;2.63;1.42;;;;;;;8.11;100.00;100729.09;5094238;28;20028;-39
2024/01/22 01:46:40;;;;;;;2.27;1.50;;;;;;;8.12;100.00;100728.03;5094824;28;20491;-39
2024/01/22 01:49:06;;;;;;;2.55;1.25;;;;;;;8.11;100.00;100720.19;5095237;28;20040;-39
2024/01/22 01:51:32;;;;;;;4.35;1.85;;;;;;;8.16;100.00;100709.59;5094132;28;20488;-39
2024/01/22 01:53:58;;;;;;;4.72;1.63;;;;;;;8.20;100.00;100708.94;5094335;28;20032;-39
2024/01/22 01:56:23;;;;;;;;;;;;;;;8.23;100.00;100704.97;5095169;28;20050;-39
2024/01/22 01:58:50;;;;;;;5.25;1.90;;;;;;;8.29;100.00;100697.88;5093971;28;20006;-39
2024/01/22 02:01:16;;;;;;;4.28;1.77;;;;;;;8.33;100.00;100718.78;5094226;28;20107;-39
2024/01/22 02:03:41;;;;;;;2.22;1.40;;;;;;;8.35;100.00;100691.63;5094876;28;20533;-39
2024/01/22 02:06:07;;;;;;;2.87;1.60;;;;;;;8.39;100.00;100677.50;5094620;28;20039;-39
2024/01/22 02:08:32;;;;;;;2.42;1.35;;;;;;;8.38;100.00;100672.34;5094109;28;20453;-39
2024/01/22 02:10:57;;;;;;;3.80;1.47;;;;;;;8.30;100.00;100670.72;5093792;28;20054;-39
2024/01/22 02:13:25;;;;;;;3.30;1.57;;;;;;;8.41;100.00;100648.47;5093634;28;20074;-39
2024/01/22 02:15:51;;;;;;;2.80;1.55;;;;;;;8.40;100.00;100654.09;5093600;28;20750;-39
2024/01/22 02:18:16;;;;;;;2.50;1.50;;;;;;;8.41;100.00;100669.22;5092658;28;20035;-39
2024/01/22 02:20:41;;;;;;;2.60;1.10;;;;;;;8.29;100.00;100625.94;5094712;28;20049;-39
2024/01/22 02:23:07;;;;;;;3.00;1.50;;;;;;;8.38;100.00;100651.59;5094471;28;20020;-39
2024/01/22 02:25:33;;;;;;;2.53;1.60;;;;;;;8.29;100.00;100619.75;5093799;28;20032;-39
2024/01/22 02:27:58;;;;;;;2.95;1.40;;;;;;;8.31;100.00;100617.66;5094040;28;20081;-39
2024/01/22 02:30:24;;;;;;;2.33;1.40;;;;;;;8.44;100.00;100620.25;5093500;28;20039;-39
2024/01/22 02:32:49;;;;;;;3.58;1.58;;;;;;;8.45;100.00;100614.66;5093663;28;20426;-39
2024/01/22 02:35:15;;;;;;;2.55;1.30;;;;;;;8.46;100.00;100616.31;5093280;28;20028;-39
2024/01/22 02:37:41;;;;;;;3.60;1.25;;;;;;;8.36;100.00;100599.81;5093948;28;20384;-39
2024/01/22 02:40:06;;;;;;;3.17;1.55;;;;;;;8.52;100.00;100609.19;5094373;28;20035;-39
2024/01/22 02:42:33;;;;;;;1.88;1.10;;;;;;;8.48;100.00;100597.22;5093633;28;20040;-39
2024/01/22 02:44:59;;;;;;;2.83;1.48;;;;;;;8.41;100.00;100583.81;5093854;28;20024;-39
2024/01/22 02:47:24;;;;;;;;;;;;;;;8.43;100.00;100573.63;5094516;28;20030;-39
2024/01/22 02:49:49;;;;;;;2.95;1.50;;;;;;;8.42;100.00;100582.75;5093268;28;20231;-39
2024/01/22 02:52:15;;;;;;;3.03;1.50;;;;;;;8.36;100.00;100570.19;5093269;28;20453;-39
2024/01/22 02:54:40;;;;;;;2.33;1.27;;;;;;;8.39;100.00;100568.91;5093032;28;20056;-39
2024/01/22 02:57:05;;;;;;;2.20;1.40;;;;;;;8.44;100.00;100547.50;5093585;28;20332;-39
2024/01/22 02:59:31;;;;;;;1.90;1.37;;;;;;;8.32;100.00;100528.53;5093153;28;20464;-39
2024/01/22 03:01:56;;;;;;;3.50;1.35;;;;;;;8.36;100.00;100537.00;5093682;28;20024;-39
2024/01/22 03:04:22;;;;;;;4.03;1.30;;;;;;;8.39;100.00;100529.31;5093354;28;20021;-39
2024/01/22 03:06:47;;;;;;;2.80;1.30;;;;;;;8.37;100.00;100525.19;5093369;28;20103;-39
2024/01/22 03:09:12;;;;;;;3.37;1.30;;;;;;;8.21;100.00;100503.16;5093085;28;20031;-39
2024/01/22 03:11:38;;;;;;;2.63;1.33;;;;;;;8.24;100.00;100510.78;5093632;28;20475;-39
2024/01/22 03:14:03;;;;;;;1.27;1.17;;;;;;;8.28;100.00;100505.78;5093257;28;20356;-39
2024/01/22 03:16:29;;;;;;;1.70;1.20;;;;;;;8.38;100.00;100510.69;5093753;28;20028;-39
2024/01/22 03:18:54;;;;;;;2.17;1.10;;;;;;;8.36;100.00;100502.81;5093187;28;20753;-39
2024/01/22 03:21:19;;;;;;;1.98;1.20;;;;;;;8.35;100.00;100494.94;5094038;28;20188;-39
2024/01/22 03:23:45;;;;;;;2.23;1.50;;;;;;;8.38;100.00;100498.03;5093221;28;20028;-39
2024/01/22 03:26:23;;;;;;;1.65;1.10;;;;;;;8.35;100.00;100503.84;5092908;28;20063;-39
2024/01/22 03:28:49;;;;;;;2.25;1.23;;;;;;;8.36;100.00;100486.66;5093155;28;20035;-39
2024/01/22 03:31:22;;;;;;;1.77;1.00;;;;;;;8.44;100.00;100486.38;5093391;28;20024;-39
2024/01/22 03:33:47;;;;;;;1.40;1.10;;;;;;;8.43;100.00;100492.78;5092824;28;20024;-39
2024/01/22 03:36:12;;;;;;;2.03;1.33;;;;;;;8.51;100.00;100479.00;5093632;28;20112;-39
2024/01/22 03:38:38;;;;;;;2.50;1.30;;;;;;;8.46;100.00;100481.56;5093064;28;20126;-39
2024/01/22 03:41:04;;;;;;;1.98;1.30;;;;;;;8.58;100.00;100478.91;5093035;28;20024;-39
2024/01/22 03:43:29;;;;;;;1.60;0.98;;;;;;;8.55;100.00;100470.50;5096688;28;20035;-39
2024/01/22 03:45:54;;;;;;;1.77;1.23;;;;;;;8.58;100.00;100483.50;5096658;28;20499;-39
2024/01/22 03:48:20;;;;;;;1.53;1.00;;;;;;;8.58;100.00;100486.19;5097124;28;20095;-39
2024/01/22 03:50:45;;;;;;;1.87;1.07;;;;;;;8.66;100.00;100472.41;5096782;28;20502;-39
2024/01/22 03:53:11;;;;;;;1.83;1.10;;;;;;;8.74;100.00;100483.72;5096437;28;20540;-39
2024/01/22 03:55:36;;;;;;;1.70;1.00;;;;;;;8.79;100.00;100468.72;5096170;28;20674;-39
2024/01/22 03:58:01;;;;;;;1.67;1.13;;;;;;;8.84;100.00;100461.59;5097375;28;20101;-39
2024/01/22 04:00:26;;;;;;;3.13;1.03;;;;;;;8.81;100.00;100464.72;5096466;28;20093;-39
2024/01/22 04:02:52;;;;;;;2.33;1.00;;;;;;;8.93;100.00;100467.47;5096826;28;20024;-39
2024/01/22 04:05:17;;;;;;;1.47;1.00;;;;;;;8.95;100.00;100476.16;5096401;28;20059;-39
2024/01/22 04:07:43;;;;;;;1.83;1.00;;;;;;;8.87;100.00;100439.53;5096444;28;20296;-39
2024/01/22 04:10:08;;;;;;;1.80;0.80;;;;;;;8.88;100.00;100470.03;5096117;28;20028;-39
2024/01/22 04:12:34;;;;;;;1.23;0.95;;;;;;;8.96;100.00;100472.41;5097156;28;20020;-39
2024/01/22 04:14:59;;;;;;;1.38;0.90;;;;;;;8.97;100.00;100463.25;5096445;28;20059;-39
2024/01/22 04:17:25;;;;;;;2.07;1.10;;;;;;;8.99;100.00;100451.22;5095991;28;20108;-39
2024/01/22 04:19:50;;;;;;;1.33;0.80;;;;;;;9.05;100.00;100441.38;5096279;28;20107;-39
2024/01/22 04:22:16;;;;;;;1.20;0.77;;;;;;;9.13;100.00;100459.13;5095943;28;20031;-39
2024/01/22 04:24:41;;;;;;;1.38;0.90;;;;;;;9.12;100.00;100449.34;5096628;28;20020;-39
2024/01/22 04:27:07;;;;;;;1.70;0.90;;;;;;;9.17;100.00;100446.78;5096586;28;20020;-39
2024/01/22 04:29:34;;;;;;;1.30;0.77;;;;;;;9.08;100.00;100434.66;5095923;28;20063;-39
2024/01/22 04:31:59;;;;;;;1.20;0.82;;;;;;;9.12;100.00;100431.28;5096461;28;20266;-39
2024/01/22 04:34:25;;;;;;;2.15;0.85;;;;;;;9.14;100.00;100455.34;5095544;28;20357;-39
2024/01/22 04:36:50;;;;;;;2.23;1.10;;;;;;;9.14;100.00;100447.25;5096043;28;20028;-39
2024/01/22 04:39:15;;;;;;;2.53;0.80;;;;;;;9.21;100.00;100437.19;5095799;28;20071;-39
2024/01/22 04:41:41;;;;;;;2.47;0.95;;;;;;;9.24;100.00;100428.63;5096107;28;20059;-39
2024/01/22 04:44:06;;;;;;;1.40;0.70;;;;;;;9.28;100.00;100432.50;5095458;28;20028;-39
2024/01/22 04:46:31;;;;;;;2.13;0.93;;;;;;;9.28;100.00;100435.22;5095769;28;20071;-39
2024/01/22 04:48:57;;;;;;;2.00;0.90;;;;;;;9.33;100.00;100421.84;5096461;28;20031;-39
2024/01/22 04:51:22;;;;;;;2.47;1.00;;;;;;;9.38;100.00;100421.16;5095638;28;20036;-39
2024/01/22 04:53:47;;;;;;;3.23;1.17;;;;;;;9.41;100.00;100423.34;5095173;28;20032;-39
2024/01/22 04:56:13;;;;;;;1.00;0.80;;;;;;;9.30;100.00;100427.69;5096054;28;20054;-39
2024/01/22 04:58:39;;;;;;;1.50;0.70;;;;;;;9.32;100.00;100431.00;5095985;28;20028;-39
2024/01/22 05:01:04;;;;;;;3.20;0.83;;;;;;;9.32;100.00;100417.50;5095714;28;20399;-39
2024/01/22 05:03:29;;;;;;;1.67;0.90;;;;;;;9.29;100.00;100386.41;5095086;28;20555;-39
2024/01/22 05:05:55;;;;;;;1.40;0.90;;;;;;;9.35;100.00;100402.72;5095292;28;20055;-39
2024/01/22 05:08:20;;;;;;;1.07;0.63;;;;;;;9.43;100.00;100397.78;5095270;28;20056;-39
2024/01/22 05:10:45;;;;;;;1.80;0.80;;;;;;;9.40;100.00;100395.56;5095241;28;20472;-39
2024/01/22 05:13:13;;;;;;;2.27;0.83;;;;;;;9.51;100.00;100423.59;5095736;28;20357;-39
2024/01/22 05:15:38;;;;;;;1.65;0.75;;;;;;;9.52;100.00;100401.78;5094976;28;20086;-39
2024/01/22 05:18:04;;;;;;;1.63;0.70;;;;;;;9.67;100.00;100400.50;5095093;28;20392;-39
2024/01/22 05:20:29;;;;;;;2.67;0.80;;;;;;;9.62;100.00;100403.91;5094966;28;20028;-39
2024/01/22 05:22:55;;;;;;;2.53;0.73;;;;;;;9.66;100.00;100396.13;5093777;28;20020;-39
2024/01/22 05:25:20;;;;;;;1.10;0.70;;;;;;;9.67;100.00;100390.50;5094892;28;20040;-39
2024/01/22 05:27:47;;;;;;;1.63;0.80;;;;;;;9.73;100.00;100380.66;5094979;28;20085;-39
2024/01/22 05:30:14;;;;;;;2.67;0.70;;;;;;;9.80;100.00;100397.53;5094573;28;20486;-39
2024/01/22 05:32:39;;;;;;;2.03;0.70;;;;;;;9.94;100.00;100411.59;5095462;28;20361;-39
2024/01/22 05:35:05;;;;;;;1.30;0.60;;;;;;;9.99;100.00;100409.00;5094732;28;20020;-39
2024/01/22 05:37:31;;;;;;;0.93;0.50;;;;;;;10.11;100.00;100400.91;5094997;28;20089;-39
2024/01/22 05:39:56;;;;;;;1.90;0.77;;;;;;;10.16;100.00;100403.72;5094594;28;20077;-39
2024/01/22 05:42:21;;;;;;;2.00;0.60;;;;;;;10.20;100.00;100415.66;5095120;28;20034;-39
2024/01/22 05:44:47;;;;;;;4.53;0.87;;;;;;;10.24;100.00;100401.47;5095081;28;20315;-39
2024/01/22 05:47:12;;;;;;;3.70;0.80;;;;;;;10.23;100.00;100426.00;5093744;28;20020;-39
2024/01/22 05:49:37;;;;;;;3.07;0.67;;;;;;;10.20;100.00;100403.00;5094399;28;20262;-39
2024/01/22 05:52:03;;;;;;;1.30;0.70;;;;;;;10.19;100.00;100425.66;5094453;28;20507;-39
2024/01/22 05:54:29;;;;;;;1.08;0.68;;;;;;;10.14;100.00;100419.31;5093828;28;20329;-39
2024/01/22 05:56:55;;;;;;;1.10;0.32;;;;;;;10.14;100.00;100422.84;5094247;28;20427;-39
2024/01/22 05:59:20;;;;;;;2.90;0.60;;;;;;;10.08;100.00;100421.09;5094290;28;20032;-39
2024/01/22 06:01:45;;;;;;;1.87;0.67;;;;;;;10.07;100.00;100436.50;5094593;28;20028;-39
2024/01/22 06:04:11;;;;;;;1.57;0.80;;;;;;;10.14;100.00;100427.44;5093791;28;20032;-39
2024/01/22 06:06:37;;;;;;;1.90;0.60;;;;;;;10.06;100.00;100432.16;5094524;28;20032;-39
2024/01/22 06:09:02;;;;;;;;;;;;;;;10.05;100.00;100435.91;5094274;28;20032;-39
2024/01/22 06:11:30;;;;;;;1.08;0.70;;;;;;;10.05;100.00;100422.41;5094911;28;19915;-39
2024/01/22 06:13:56;;;;;;;1.83;0.73;;;;;;;9.94;100.00;100420.53;5093716;28;20541;-39
2024/01/22 06:16:21;;;;;;;0.98;0.50;;;;;;;9.95;100.00;100435.66;5094190;28;20024;-39
2024/01/22 06:18:48;;;;;;;1.25;0.60;;;;;;;9.95;100.00;100422.16;5093747;28;20099;-39
2024/01/22 06:21:14;;;;;;;1.88;0.73;;;;;;;9.94;100.00;100430.50;5094755;28;20069;-39
2024/01/22 06:23:41;;;;;;;1.83;0.77;;;;;;;9.90;100.00;100427.47;5093542;28;20107;-39
2024/01/22 06:26:06;;;;;;;1.17;0.65;;;;;;;9.85;100.00;100408.44;5094610;28;20031;-39
2024/01/22 06:28:31;;;;;;;1.33;0.70;;;;;;;9.84;100.00;100420.31;5094040;28;20032;-39
2024/01/22 06:30:57;;;;;;;0.65;0.47;;;;;;;9.82;100.00;100427.03;5094145;28;20044;-39
2024/01/22 06:33:23;;;;;;;1.73;0.70;;;;;;;9.83;100.00;100429.47;5093777;28;20047;-39
2024/01/22 06:35:49;;;;;;;1.42;0.55;;;;;;;9.80;100.00;100425.34;5093605;28;20062;-39
2024/01/22 06:38:18;;;;;;;1.60;0.73;;;;;;;9.80;100.00;100422.66;5093936;28;20038;-39
2024/01/22 06:40:44;;;;;;;2.00;0.60;;;;;;;9.78;100.00;100423.97;5093409;28;20024;-39
2024/01/22 06:43:10;;;;;;;1.95;0.70;;;;;;;9.74;100.00;100399.31;5093355;28;20442;-39
2024/01/22 06:45:36;;;;;;;1.92;0.52;;;;;;;9.86;100.00;100429.00;5093180;28;20487;-39
2024/01/22 06:48:02;;;;;;;0.85;0.55;;;;;;;9.85;100.00;100445.44;5093550;28;20040;-39
2024/01/22 06:50:27;;;;;;;1.27;0.60;;;;;;;9.88;100.00;100435.00;5093794;28;20038;-39
2024/01/22 06:52:52;;;;;;;1.77;0.60;;;;;;;9.75;100.00;100438.75;5093241;28;20034;-39
2024/01/22 06:55:18;;;;;;;1.95;0.65;;;;;;;9.85;100.00;100461.63;5093499;28;20055;-39
2024/01/22 06:57:44;;;;;;;1.45;0.70;;;;;;;9.76;100.00;100407.16;5094232;28;20107;-39
2024/01/22 07:00:11;;;;;;;1.67;0.70;;;;;;;9.93;100.00;100445.09;5094196;28;20123;-39
2024/01/22 07:02:41;;;;;;;3.15;0.85;;;;;;;10.01;100.00;100444.72;5093629;28;20533;-39
2024/01/22 07:05:07;;;;;;;1.50;0.60;;;;;;;10.03;100.00;100458.81;5093666;28;20028;-39
2024/01/22 07:07:33;;;;;;;1.65;0.60;;;;;;;10.00;100.00;100451.16;5093825;28;20032;-39
2024/01/22 07:09:58;;;;;;;1.63;0.60;;;;;;;9.95;100.00;100449.19;5093351;28;20424;-40
2024/01/22 07:12:24;;;;;;;1.77;0.57;;;;;;;9.95;100.00;100453.75;5093411;28;20062;-39
2024/01/22 07:14:50;;;;;;;1.55;0.60;;;;;;;9.91;100.00;100453.44;5093313;28;20024;-39
2024/01/22 07:17:16;;;;;;;1.23;0.50;;;;;;;9.99;100.00;100469.25;5095480;28;20020;-39
2024/01/22 07:19:45;;;;;;;1.00;0.50;;;;;;;10.03;100.00;100459.63;5097342;28;20026;-39
2024/01/22 07:22:10;;;;;;;1.88;0.60;;;;;;;10.04;100.00;100473.97;5098118;28;20089;-39
2024/01/22 07:24:36;;;;;;;2.90;0.80;;;;;;;10.06;100.00;100471.84;5096837;28;20028;-39
2024/01/22 07:27:02;;;;;;;3.50;0.80;;;;;;;10.05;100.00;100453.97;5097264;28;20024;-39
2024/01/22 07:29:27;;;;;;;5.00;1.20;;;;;;;10.04;100.00;100458.56;5097478;28;20115;-39
2024/01/22 07:31:53;;;;;;;2.83;0.90;;;;;;;10.02;100.00;100460.69;5097261;28;20020;-40
2024/01/22 07:34:18;;;;;;;;;;;;;;;9.99;100.00;100474.66;5097469;28;20323;-39
2024/01/22 07:36:44;;;;;;;3.27;1.00;;;;;;;9.97;100.00;100470.56;5097225;28;19912;-39
2024/01/22 07:39:09;;;;;;;4.30;1.30;;;;;;;9.94;100.00;100474.53;5096659;28;20270;-39
2024/01/22 07:41:36;;;;;;;6.37;1.37;;;;;;;9.97;100.00;100482.19;5096679;28;20062;-39
2024/01/22 07:44:03;;;;;;;3.13;1.10;;;;;;;9.95;100.00;100476.19;5097159;28;20035;-39
2024/01/22 07:46:29;;;;;;;3.88;1.50;;;;;;;9.97;100.00;100482.19;5095896;28;20020;-39
2024/01/22 07:48:54;;;;;;;5.40;1.60;;;;;;;9.94;100.00;100482.66;5096590;28;20043;-39
2024/01/22 07:51:20;;;;;;;5.97;1.67;;;;;;;9.95;100.00;100483.47;5096798;28;20261;-39
2024/01/22 07:53:46;;;;;;;;;;;;;;;9.94;100.00;100487.22;5096784;28;20115;-39
2024/01/22 07:56:11;;;;;;;4.83;1.60;;;;;;;9.93;100.00;100493.69;5096663;28;20069;-39
2024/01/22 07:58:40;;;;;;;5.70;1.83;;;;;;;9.91;100.00;100485.03;5096815;28;20298;-39
2024/01/22 08:01:06;;;;;;;5.70;1.58;;;;;;;9.90;100.00;100481.47;5097387;28;20020;-39
2024/01/22 08:03:31;;;;;;;;;;;;;;;9.90;100.00;100489.56;5096881;28;20024;-39
2024/01/22 08:05:58;;;;;;;7.18;1.60;;;;;;;9.90;100.00;100496.84;5096535;28;19957;-39
2024/01/22 08:08:23;;;;;;;6.75;1.50;;;;;;;9.86;100.00;100499.22;5096109;28;20028;-39
2024/01/22 08:10:48;;;;;;;7.77;1.77;;;;;;;9.85;100.00;100491.34;5096933;28;20032;-39
2024/01/22 08:13:14;;;;;;;5.57;1.50;;;;;;;9.85;100.00;100500.25;5096721;28;20024;-39
2024/01/22 08:15:40;;;;;;;7.95;1.80;;;;;;;9.82;100.00;100481.84;5096484;28;20642;-39
2024/01/22 08:18:05;;;;;;;7.30;2.00;;;;;;;9.82;100.00;100500.75;5096630;28;20035;-39
2024/01/22 08:20:30;;;;;;;7.67;2.13;;;;;;;9.81;100.00;100499.13;5096296;28;20030;-39
2024/01/22 08:22:55;;;;;;;8.97;2.00;;;;;;;9.82;100.00;100510.72;5096292;28;20028;-39
2024/01/22 08:25:28;;;;;;;4.83;1.53;;;;;;;9.80;100.00;100519.03;5096205;28;20089;-39
2024/01/22 08:27:54;;;;;;;9.45;2.40;;;;;;;9.70;100.00;100484.53;5095849;28;20258;-39
2024/01/22 08:30:21;;;;;;;9.07;2.45;;;;;;;9.82;100.00;100508.84;5096376;28;20028;-39
2024/01/22 08:32:47;;;;;;;8.68;2.38;;;;;;;9.82;100.00;100505.34;5096769;28;20364;-39
2024/01/22 08:35:12;;;;;;;8.35;2.20;;;;;;;9.82;100.00;100511.56;5096646;28;20032;-39
2024/01/22 08:37:39;;;;;;;8.23;2.30;;;;;;;9.81;100.00;100515.31;5096550;28;20024;-39
2024/01/22 08:40:06;;;;;;;10.45;2.55;;;;;;;9.81;100.00;100531.53;5095780;28;20031;-39
2024/01/22 08:42:34;;;;;;;8.35;1.70;;;;;;;9.78;100.00;100519.28;5095737;28;20035;-39
2024/01/22 08:45:00;;;;;;;6.43;1.92;;;;;;;9.76;100.00;100534.06;5095994;28;20059;-39
2024/01/22 08:47:25;;;;;;;8.43;2.42;;;;;;;9.75;100.00;100532.44;5096826;28;20040;-39
2024/01/22 08:49:50;;;;;;;6.77;1.90;;;;;;;9.64;100.00;100520.56;5095636;28;20081;-39
2024/01/22 08:52:16;;;;;;;7.53;1.57;;;;;;;9.59;100.00;100522.31;5095963;28;20464;-39
2024/01/22 08:54:41;;;;;;;5.53;2.00;;;;;;;9.68;100.00;100537.13;5095983;28;20074;-39
2024/01/22 08:57:07;;;;;;;6.25;2.00;;;;;;;9.67;100.00;100527.38;5095218;28;20024;-39
2024/01/22 08:59:33;;;;;;;7.95;2.13;;;;;;;9.64;100.00;100534.06;5095131;28;20032;-39
2024/01/22 09:01:59;;;;;;;6.03;1.92;;;;;;;9.62;100.00;100517.28;5095417;28;20039;-39
2024/01/22 09:04:24;;;;;;;4.40;1.48;;;;;;;9.61;100.00;100512.09;5096139;28;20345;-39
2024/01/22 09:06:51;;;;;;;8.37;2.97;;;;;;;9.57;100.00;100497.44;5095660;28;20027;-39
2024/01/22 09:09:16;;;;;;;8.32;2.42;;;;;;;9.57;100.00;100513.63;5094950;28;20059;-39
2024/01/22 09:11:41;;;;;;;6.78;2.10;;;;;;;9.56;100.00;100518.19;5095218;28;20499;-39
2024/01/22 09:14:07;;;;;;;12.27;2.77;;;;;;;9.54;100.00;100510.34;5095196;28;20024;-39
2024/01/22 09:16:32;;;;;;;12.20;2.83;;;;;;;9.52;100.00;100507.06;5095105;28;20069;-39
2024/01/22 09:18:57;;;;;;;10.87;2.60;;;;;;;9.60;100.00;100524.78;5095603;28;20060;-39
2024/01/22 09:21:23;;;;;;;12.27;3.07;;;;;;;9.59;100.00;100516.91;5095351;28;20097;-39
2024/01/22 09:23:49;;;;;;;9.55;2.70;;;;;;;9.52;100.00;100512.47;5095224;28;20024;-40
2024/01/22 09:26:14;;;;;;;12.43;3.10;;;;;;;9.50;100.00;100511.03;5095248;28;20353;-39
2024/01/22 09:28:39;;;;;;;11.03;2.97;;;;;;;9.48;100.00;100495.06;5094878;28;20059;-39
2024/01/22 09:31:05;;;;;;;11.60;2.80;;;;;;;9.46;100.00;100499.88;5094941;28;20031;-39
2024/01/22 09:33:30;;;;;;;13.73;3.30;;;;;;;9.42;100.00;100496.00;5094756;28;20677;-39
2024/01/22 09:35:56;;;;;;;17.45;4.18;;;;;;;9.45;100.00;100510.91;5094741;28;20105;-39
2024/01/22 09:38:22;;;;;;;9.35;3.00;;;;;;;9.38;100.00;100499.41;5095250;28;20103;-39
2024/01/22 09:40:48;;;;;;;;;;;;;;;9.46;100.00;100513.34;5094261;28;20035;-39
2024/01/22 09:43:14;;;;;;;12.35;3.15;;;;;;;9.39;100.00;100509.13;5094687;28;19915;-39
2024/01/22 09:45:39;;;;;;;14.35;4.00;;;;;;;9.44;100.00;100503.88;5094286;28;20028;-39
2024/01/22 09:48:05;;;;;;;13.02;3.33;;;;;;;9.40;100.00;100505.38;5095348;28;20024;-39
2024/01/22 09:50:31;;;;;;;12.70;3.75;;;;;;;9.42;100.00;100509.50;5094192;28;20032;-39
2024/01/22 09:53:16;;;;;;;9.18;3.00;;;;;;;9.43;100.00;100519.25;5094127;28;20396;-39
2024/01/22 09:55:42;;;;;;;10.98;2.47;;;;;;;9.41;100.00;100521.34;5094590;28;20055;-39
2024/01/22 09:58:09;;;;;;;11.07;2.90;;;;;;;9.44;100.00;100566.75;5093918;28;20027;-39
2024/01/22 10:00:37;;;;;;;11.75;2.42;;;;;;;9.43;100.00;100602.09;5094264;28;20060;-39
2024/01/22 10:03:03;;;;;;;10.40;2.30;;;;;;;9.31;100.00;100629.00;5094226;28;20465;-39
2024/01/22 10:05:29;;;;;;;6.10;1.85;;;;;;;9.11;100.00;100639.22;5094232;28;20059;-39
2024/01/22 10:07:55;;;;;;;8.15;2.17;;;;;;;8.93;100.00;100656.22;5094787;28;20035;-39
2024/01/22 10:10:21;;;;;;;7.63;2.00;;;;;;;8.67;100.00;100643.88;5094157;28;20406;-38
2024/01/22 10:13:07;;;;;;;9.65;2.15;;;;;;;8.58;100.00;100661.38;5094878;28;20269;-38
2024/01/22 10:15:34;;;;;;;7.20;2.00;;;;;;;8.36;100.00;100640.25;5093813;28;20361;-38
2024/01/22 10:18:11;;;;;;;8.57;2.60;;;;;;;8.35;100.00;100657.44;5094312;28;20032;-38
2024/01/22 10:20:37;;;;;;;10.15;2.38;;;;;;;8.19;100.00;100648.00;5093952;28;20032;-38
2024/01/22 10:23:03;;;;;;;9.88;2.10;;;;;;;8.20;100.00;100656.94;5093660;28;20066;-39
2024/01/22 10:25:29;;;;;;;8.95;2.20;;;;;;;8.14;100.00;100663.19;5093849;28;20059;-39
2024/01/22 10:28:08;;;;;;;9.30;2.63;;;;;;;8.08;100.00;100672.13;5094083;28;20456;-39
2024/01/22 10:30:36;;;;;;;12.02;2.70;;;;;;;7.92;100.00;100668.13;5093500;28;20522;-39
2024/01/22 10:33:16;;;;;;;10.38;2.75;;;;;;;7.97;100.00;100681.75;5093745;28;20028;-39
2024/01/22 10:35:43;;;;;;;12.45;3.08;;;;;;;7.99;100.00;100695.81;5094001;28;20073;-39
2024/01/22 10:38:21;;;;;;;11.38;2.90;;;;;;;7.97;100.00;100698.72;5093666;28;20044;-39
2024/01/22 10:40:47;;;;;;;13.85;3.13;;;;;;;7.93;100.00;100694.81;5094146;28;20099;-39
2024/01/22 10:43:26;;;;;;;14.32;3.22;;;;;;;7.88;100.00;100688.44;5094182;28;20020;-39
2024/01/22 10:45:52;;;;;;;16.80;3.35;;;;;;;7.94;100.00;100698.34;5093178;28;20447;-39
2024/01/22 10:48:20;;;;;;;13.25;3.10;;;;;;;7.93;100.00;100686.75;5093351;28;20052;-39
2024/01/22 10:50:46;;;;;;;16.23;3.53;;;;;;;7.95;100.00;100699.97;5093002;28;20063;-39
2024/01/22 10:53:11;;;;;;;15.20;3.70;;;;;;;8.00;100.00;100701.00;5093569;28;20054;-39
2024/01/22 10:55:38;;;;;;;15.73;4.30;;;;;;;8.03;100.00;100693.50;5093096;28;20074;-39
2024/01/22 10:58:13;;;;;;;15.82;4.15;;;;;;;8.07;100.00;100697.44;5093696;28;20788;-39
2024/01/22 11:00:43;;;;;;;17.80;3.80;;;;;;;8.06;100.00;100693.91;5093671;28;20032;-39
2024/01/22 11:03:12;;;;;;;19.98;4.07;;;;;;;8.18;100.00;100699.41;5093923;28;20542;-39
2024/01/22 11:05:42;;;;;;;18.30;4.82;;;;;;;8.17;100.00;100695.91;5093811;28;20035;-39
2024/01/22 11:08:11;;;;;;;22.50;5.65;;;;;;;8.25;100.00;100713.66;5093299;28;20047;-39
2024/01/22 11:10:42;;;;;;;21.67;4.85;;;;;;;8.30;100.00;100716.53;5093361;28;20055;-39
2024/01/22 11:13:08;;;;;;;23.60;5.10;;;;;;;8.29;100.00;100695.19;5093923;28;20089;-39
2024/01/22 11:15:34;;;;;;;20.27;4.82;;;;;;;8.42;100.00;100709.41;5092925;28;20028;-39
2024/01/22 11:18:00;;;;;;;18.77;5.53;;;;;;;8.51;100.00;100701.88;5093866;28;20035;-39
2024/01/22 11:20:26;;;;;;;21.20;5.32;;;;;;;8.47;100.00;100700.66;5093268;28;20075;-39